sensor_id;sensor_type;location;lat;lon;timestamp;temperature;humidity
23231;DHT22;11784;49.818;8.632;2023-03-31T00:02:19;15.30;81.70
23231;DHT22;11784;49.818;8.632;2023-03-31T00:04:47;15.20;81.70
23231;DHT22;11784;49.818;8.632;2023-03-31T00:07:17;15.30;82.00
23231;DHT22;11784;49.818;8.632;2023-03-31T00:09:47;15.30;82.20
23231;DHT22;11784;49.818;8.632;2023-03-31T00:12:13;15.30;81.90
23231;DHT22;11784;49.818;8.632;2023-03-31T00:14:40;15.30;81.80
23231;DHT22;11784;49.818;8.632;2023-03-31T00:17:07;15.30;81.60
23231;DHT22;11784;49.818;8.632;2023-03-31T00:19:33;15.30;81.60
23231;DHT22;11784;49.818;8.632;2023-03-31T00:21:58;15.30;81.50
23231;DHT22;11784;49.818;8.632;2023-03-31T00:24:28;15.30;81.50
23231;DHT22;11784;49.818;8.632;2023-03-31T00:27:02;15.30;81.40
23231;DHT22;11784;49.818;8.632;2023-03-31T00:29:28;15.30;81.60
23231;DHT22;11784;49.818;8.632;2023-03-31T00:31:54;15.30;81.50
23231;DHT22;11784;49.818;8.632;2023-03-31T00:34:21;15.30;81.90
23231;DHT22;11784;49.818;8.632;2023-03-31T00:36:46;15.30;82.00
23231;DHT22;11784;49.818;8.632;2023-03-31T00:39:14;15.30;82.10
23231;DHT22;11784;49.818;8.632;2023-03-31T00:41:41;15.30;82.20
23231;DHT22;11784;49.818;8.632;2023-03-31T00:44:27;15.30;82.10
23231;DHT22;11784;49.818;8.632;2023-03-31T00:47:14;15.30;82.00
23231;DHT22;11784;49.818;8.632;2023-03-31T00:49:49;15.30;82.20
23231;DHT22;11784;49.818;8.632;2023-03-31T00:52:30;15.20;81.90
23231;DHT22;11784;49.818;8.632;2023-03-31T00:55:08;15.20;81.70
23231;DHT22;11784;49.818;8.632;2023-03-31T00:57:35;15.20;81.90
23231;DHT22;11784;49.818;8.632;2023-03-31T01:00:06;15.20;82.20
23231;DHT22;11784;49.818;8.632;2023-03-31T01:02:47;15.20;82.00
23231;DHT22;11784;49.818;8.632;2023-03-31T01:05:24;15.20;81.90
23231;DHT22;11784;49.818;8.632;2023-03-31T01:07:50;15.20;82.00
23231;DHT22;11784;49.818;8.632;2023-03-31T01:10:17;15.20;82.10
23231;DHT22;11784;49.818;8.632;2023-03-31T01:12:45;15.10;82.20
23231;DHT22;11784;49.818;8.632;2023-03-31T01:15:12;15.20;82.20
23231;DHT22;11784;49.818;8.632;2023-03-31T01:17:37;15.20;82.30
23231;DHT22;11784;49.818;8.632;2023-03-31T01:34:27;15.10;81.90
23231;DHT22;11784;49.818;8.632;2023-03-31T01:45:59;15.20;81.80
23231;DHT22;11784;49.818;8.632;2023-03-31T01:48:34;15.20;81.30
23231;DHT22;11784;49.818;8.632;2023-03-31T01:56:42;15.20;81.00
23231;DHT22;11784;49.818;8.632;2023-03-31T01:59:17;15.10;80.80
23231;DHT22;11784;49.818;8.632;2023-03-31T02:02:01;15.10;80.50
23231;DHT22;11784;49.818;8.632;2023-03-31T02:04:33;15.10;81.20
23231;DHT22;11784;49.818;8.632;2023-03-31T02:07:09;15.10;81.00
23231;DHT22;11784;49.818;8.632;2023-03-31T02:09:39;15.10;81.20
23231;DHT22;11784;49.818;8.632;2023-03-31T02:12:09;15.00;81.50
23231;DHT22;11784;49.818;8.632;2023-03-31T02:14:38;15.10;81.60
23231;DHT22;11784;49.818;8.632;2023-03-31T02:17:06;15.10;81.20
23231;DHT22;11784;49.818;8.632;2023-03-31T02:19:36;15.10;81.20
23231;DHT22;11784;49.818;8.632;2023-03-31T02:22:04;15.10;81.40
23231;DHT22;11784;49.818;8.632;2023-03-31T02:24:31;15.10;81.20
23231;DHT22;11784;49.818;8.632;2023-03-31T02:27:18;15.10;81.30
23231;DHT22;11784;49.818;8.632;2023-03-31T02:29:45;15.10;81.10
23231;DHT22;11784;49.818;8.632;2023-03-31T02:32:16;15.10;81.30
23231;DHT22;11784;49.818;8.632;2023-03-31T02:34:43;15.10;81.30
23231;DHT22;11784;49.818;8.632;2023-03-31T02:37:09;15.10;81.40
23231;DHT22;11784;49.818;8.632;2023-03-31T02:39:36;15.10;81.60
23231;DHT22;11784;49.818;8.632;2023-03-31T02:42:04;15.10;82.40
23231;DHT22;11784;49.818;8.632;2023-03-31T02:44:34;15.10;82.70
23231;DHT22;11784;49.818;8.632;2023-03-31T02:47:02;15.20;83.00
23231;DHT22;11784;49.818;8.632;2023-03-31T02:49:29;15.20;83.60
23231;DHT22;11784;49.818;8.632;2023-03-31T02:57:57;15.10;84.90
23231;DHT22;11784;49.818;8.632;2023-03-31T03:03:42;15.00;85.60
23231;DHT22;11784;49.818;8.632;2023-03-31T03:12:44;15.00;87.40
23231;DHT22;11784;49.818;8.632;2023-03-31T03:15:25;14.90;88.20
23231;DHT22;11784;49.818;8.632;2023-03-31T03:17:52;14.90;88.60
23231;DHT22;11784;49.818;8.632;2023-03-31T03:20:20;14.90;88.90
23231;DHT22;11784;49.818;8.632;2023-03-31T03:22:46;14.90;89.10
23231;DHT22;11784;49.818;8.632;2023-03-31T03:25:14;14.90;89.30
23231;DHT22;11784;49.818;8.632;2023-03-31T03:27:41;14.90;89.40
23231;DHT22;11784;49.818;8.632;2023-03-31T03:30:09;14.90;89.30
23231;DHT22;11784;49.818;8.632;2023-03-31T03:32:35;14.90;89.40
23231;DHT22;11784;49.818;8.632;2023-03-31T03:35:01;14.90;89.30
23231;DHT22;11784;49.818;8.632;2023-03-31T03:37:30;14.90;89.40
23231;DHT22;11784;49.818;8.632;2023-03-31T03:39:56;14.90;88.80
23231;DHT22;11784;49.818;8.632;2023-03-31T03:42:21;14.90;89.40
23231;DHT22;11784;49.818;8.632;2023-03-31T03:44:47;14.90;88.70
23231;DHT22;11784;49.818;8.632;2023-03-31T03:47:13;14.90;88.70
23231;DHT22;11784;49.818;8.632;2023-03-31T03:49:39;14.90;88.20
23231;DHT22;11784;49.818;8.632;2023-03-31T03:52:04;14.90;87.70
23231;DHT22;11784;49.818;8.632;2023-03-31T03:54:30;14.90;87.60
23231;DHT22;11784;49.818;8.632;2023-03-31T03:56:56;14.90;87.30
23231;DHT22;11784;49.818;8.632;2023-03-31T03:59:22;14.90;87.20
23231;DHT22;11784;49.818;8.632;2023-03-31T04:01:47;14.90;86.60
23231;DHT22;11784;49.818;8.632;2023-03-31T04:04:13;14.90;86.60
23231;DHT22;11784;49.818;8.632;2023-03-31T04:06:39;14.90;86.70
23231;DHT22;11784;49.818;8.632;2023-03-31T04:09:05;14.90;86.70
23231;DHT22;11784;49.818;8.632;2023-03-31T04:11:30;14.90;85.80
23231;DHT22;11784;49.818;8.632;2023-03-31T04:13:56;14.90;85.70
23231;DHT22;11784;49.818;8.632;2023-03-31T04:16:22;14.80;86.00
23231;DHT22;11784;49.818;8.632;2023-03-31T04:18:50;14.80;86.40
23231;DHT22;11784;49.818;8.632;2023-03-31T04:21:17;14.80;86.50
23231;DHT22;11784;49.818;8.632;2023-03-31T04:23:50;14.80;86.50
23231;DHT22;11784;49.818;8.632;2023-03-31T04:26:23;14.80;86.40
23231;DHT22;11784;49.818;8.632;2023-03-31T04:28:58;14.80;86.30
23231;DHT22;11784;49.818;8.632;2023-03-31T04:31:25;14.80;86.10
23231;DHT22;11784;49.818;8.632;2023-03-31T04:33:53;14.80;86.10
23231;DHT22;11784;49.818;8.632;2023-03-31T04:36:20;14.80;85.70
23231;DHT22;11784;49.818;8.632;2023-03-31T04:38:48;14.80;85.90
23231;DHT22;11784;49.818;8.632;2023-03-31T04:41:19;14.80;85.20
23231;DHT22;11784;49.818;8.632;2023-03-31T04:43:45;14.80;85.40
23231;DHT22;11784;49.818;8.632;2023-03-31T04:46:13;14.80;85.40
23231;DHT22;11784;49.818;8.632;2023-03-31T04:48:39;14.80;85.10
23231;DHT22;11784;49.818;8.632;2023-03-31T04:51:05;14.80;85.10
23231;DHT22;11784;49.818;8.632;2023-03-31T04:53:31;14.80;84.60
23231;DHT22;11784;49.818;8.632;2023-03-31T04:55:56;14.90;85.10
23231;DHT22;11784;49.818;8.632;2023-03-31T04:58:22;14.80;84.40
23231;DHT22;11784;49.818;8.632;2023-03-31T05:00:48;14.90;84.10
23231;DHT22;11784;49.818;8.632;2023-03-31T05:03:13;14.90;84.30
23231;DHT22;11784;49.818;8.632;2023-03-31T05:05:39;14.90;84.80
23231;DHT22;11784;49.818;8.632;2023-03-31T05:08:05;14.90;85.20
23231;DHT22;11784;49.818;8.632;2023-03-31T05:10:33;14.90;85.40
23231;DHT22;11784;49.818;8.632;2023-03-31T05:12:59;14.80;86.40
23231;DHT22;11784;49.818;8.632;2023-03-31T05:15:25;14.80;86.60
23231;DHT22;11784;49.818;8.632;2023-03-31T05:17:50;14.70;87.50
23231;DHT22;11784;49.818;8.632;2023-03-31T05:20:17;14.70;88.50
23231;DHT22;11784;49.818;8.632;2023-03-31T05:22:44;14.60;89.30
23231;DHT22;11784;49.818;8.632;2023-03-31T05:25:11;14.70;89.80
23231;DHT22;11784;49.818;8.632;2023-03-31T05:27:39;14.60;90.10
23231;DHT22;11784;49.818;8.632;2023-03-31T05:30:05;14.60;90.20
23231;DHT22;11784;49.818;8.632;2023-03-31T05:32:32;14.60;90.30
23231;DHT22;11784;49.818;8.632;2023-03-31T05:34:58;14.60;90.60
23231;DHT22;11784;49.818;8.632;2023-03-31T05:37:24;14.50;90.90
23231;DHT22;11784;49.818;8.632;2023-03-31T05:39:50;14.50;90.90
23231;DHT22;11784;49.818;8.632;2023-03-31T05:42:16;14.50;91.00
23231;DHT22;11784;49.818;8.632;2023-03-31T05:44:41;14.40;91.10
23231;DHT22;11784;49.818;8.632;2023-03-31T05:47:09;14.40;91.30
23231;DHT22;11784;49.818;8.632;2023-03-31T05:49:35;14.40;91.20
23231;DHT22;11784;49.818;8.632;2023-03-31T05:52:00;14.40;91.30
23231;DHT22;11784;49.818;8.632;2023-03-31T05:54:26;14.40;91.10
23231;DHT22;11784;49.818;8.632;2023-03-31T05:56:51;14.40;91.30
23231;DHT22;11784;49.818;8.632;2023-03-31T05:59:17;14.40;91.30
23231;DHT22;11784;49.818;8.632;2023-03-31T06:01:43;14.40;91.20
23231;DHT22;11784;49.818;8.632;2023-03-31T06:04:10;14.40;91.20
23231;DHT22;11784;49.818;8.632;2023-03-31T06:06:35;14.40;91.30
23231;DHT22;11784;49.818;8.632;2023-03-31T06:09:03;14.40;91.10
23231;DHT22;11784;49.818;8.632;2023-03-31T06:11:29;14.30;91.20
23231;DHT22;11784;49.818;8.632;2023-03-31T06:13:54;14.30;91.30
23231;DHT22;11784;49.818;8.632;2023-03-31T06:16:20;14.30;91.50
23231;DHT22;11784;49.818;8.632;2023-03-31T06:18:45;14.20;91.50
23231;DHT22;11784;49.818;8.632;2023-03-31T06:21:16;14.30;91.80
23231;DHT22;11784;49.818;8.632;2023-03-31T06:23:42;14.20;91.80
23231;DHT22;11784;49.818;8.632;2023-03-31T06:26:12;14.20;91.90
23231;DHT22;11784;49.818;8.632;2023-03-31T06:28:38;14.20;92.00
23231;DHT22;11784;49.818;8.632;2023-03-31T06:31:08;14.20;92.00
23231;DHT22;11784;49.818;8.632;2023-03-31T06:33:36;14.20;92.20
23231;DHT22;11784;49.818;8.632;2023-03-31T06:36:01;14.20;92.40
23231;DHT22;11784;49.818;8.632;2023-03-31T06:38:29;14.20;92.50
23231;DHT22;11784;49.818;8.632;2023-03-31T06:40:55;14.20;92.60
23231;DHT22;11784;49.818;8.632;2023-03-31T06:43:20;14.20;92.60
23231;DHT22;11784;49.818;8.632;2023-03-31T06:45:47;14.20;92.40
23231;DHT22;11784;49.818;8.632;2023-03-31T06:48:13;14.30;92.60
23231;DHT22;11784;49.818;8.632;2023-03-31T06:50:40;14.30;92.50
23231;DHT22;11784;49.818;8.632;2023-03-31T06:53:06;14.30;92.20
23231;DHT22;11784;49.818;8.632;2023-03-31T06:55:33;14.30;92.30
23231;DHT22;11784;49.818;8.632;2023-03-31T06:57:59;14.30;92.00
23231;DHT22;11784;49.818;8.632;2023-03-31T07:00:24;14.30;91.90
23231;DHT22;11784;49.818;8.632;2023-03-31T07:02:52;14.30;91.80
23231;DHT22;11784;49.818;8.632;2023-03-31T07:05:18;14.30;91.80
23231;DHT22;11784;49.818;8.632;2023-03-31T07:07:44;14.30;91.80
23231;DHT22;11784;49.818;8.632;2023-03-31T07:10:10;14.30;91.90
23231;DHT22;11784;49.818;8.632;2023-03-31T07:12:35;14.30;91.80
23231;DHT22;11784;49.818;8.632;2023-03-31T07:15:01;14.30;91.90
23231;DHT22;11784;49.818;8.632;2023-03-31T07:17:27;14.30;91.90
23231;DHT22;11784;49.818;8.632;2023-03-31T07:19:53;14.30;92.00
23231;DHT22;11784;49.818;8.632;2023-03-31T07:22:18;14.20;92.20
23231;DHT22;11784;49.818;8.632;2023-03-31T07:24:44;14.20;92.30
23231;DHT22;11784;49.818;8.632;2023-03-31T07:27:09;14.20;92.60
23231;DHT22;11784;49.818;8.632;2023-03-31T07:29:35;14.20;93.10
23231;DHT22;11784;49.818;8.632;2023-03-31T07:32:00;14.20;93.50
23231;DHT22;11784;49.818;8.632;2023-03-31T07:34:26;14.20;93.60
23231;DHT22;11784;49.818;8.632;2023-03-31T07:36:54;14.20;93.90
23231;DHT22;11784;49.818;8.632;2023-03-31T07:39:20;14.20;94.20
23231;DHT22;11784;49.818;8.632;2023-03-31T07:41:46;14.20;94.00
23231;DHT22;11784;49.818;8.632;2023-03-31T07:44:12;14.10;94.10
23231;DHT22;11784;49.818;8.632;2023-03-31T07:46:38;14.10;94.20
23231;DHT22;11784;49.818;8.632;2023-03-31T07:49:04;14.00;94.30
23231;DHT22;11784;49.818;8.632;2023-03-31T07:51:29;14.00;94.50
23231;DHT22;11784;49.818;8.632;2023-03-31T07:53:55;13.90;94.50
23231;DHT22;11784;49.818;8.632;2023-03-31T07:56:22;13.90;94.60
23231;DHT22;11784;49.818;8.632;2023-03-31T07:58:49;13.90;94.30
23231;DHT22;11784;49.818;8.632;2023-03-31T08:01:17;13.90;94.10
23231;DHT22;11784;49.818;8.632;2023-03-31T08:03:45;13.90;93.30
23231;DHT22;11784;49.818;8.632;2023-03-31T08:06:16;13.90;92.50
23231;DHT22;11784;49.818;8.632;2023-03-31T08:08:42;13.90;92.40
23231;DHT22;11784;49.818;8.632;2023-03-31T08:11:08;14.00;92.30
23231;DHT22;11784;49.818;8.632;2023-03-31T08:13:35;14.00;92.00
23231;DHT22;11784;49.818;8.632;2023-03-31T08:16:01;14.10;92.00
23231;DHT22;11784;49.818;8.632;2023-03-31T08:18:26;14.20;92.20
23231;DHT22;11784;49.818;8.632;2023-03-31T08:20:52;14.30;92.00
23231;DHT22;11784;49.818;8.632;2023-03-31T08:23:17;14.40;92.00
23231;DHT22;11784;49.818;8.632;2023-03-31T08:25:43;14.50;92.00
23231;DHT22;11784;49.818;8.632;2023-03-31T08:28:09;14.60;91.40
23231;DHT22;11784;49.818;8.632;2023-03-31T08:30:39;14.70;91.40
23231;DHT22;11784;49.818;8.632;2023-03-31T08:33:05;14.70;91.10
23231;DHT22;11784;49.818;8.632;2023-03-31T08:35:32;14.70;91.10
23231;DHT22;11784;49.818;8.632;2023-03-31T08:37:57;14.70;91.20
23231;DHT22;11784;49.818;8.632;2023-03-31T08:40:25;14.70;91.20
23231;DHT22;11784;49.818;8.632;2023-03-31T08:43:14;14.60;91.70
23231;DHT22;11784;49.818;8.632;2023-03-31T08:45:43;14.60;91.80
23231;DHT22;11784;49.818;8.632;2023-03-31T08:48:33;14.50;92.30
23231;DHT22;11784;49.818;8.632;2023-03-31T08:51:05;14.50;93.00
23231;DHT22;11784;49.818;8.632;2023-03-31T08:53:38;14.50;93.10
23231;DHT22;11784;49.818;8.632;2023-03-31T08:56:08;14.40;93.20
23231;DHT22;11784;49.818;8.632;2023-03-31T08:58:48;14.50;93.40
23231;DHT22;11784;49.818;8.632;2023-03-31T09:01:20;14.50;93.50
23231;DHT22;11784;49.818;8.632;2023-03-31T09:06:21;14.60;94.30
23231;DHT22;11784;49.818;8.632;2023-03-31T09:08:47;14.70;94.00
23231;DHT22;11784;49.818;8.632;2023-03-31T09:16:39;14.90;94.40
23231;DHT22;11784;49.818;8.632;2023-03-31T09:19:21;14.80;94.30
23231;DHT22;11784;49.818;8.632;2023-03-31T09:21:50;14.80;94.40
23231;DHT22;11784;49.818;8.632;2023-03-31T09:24:26;14.80;94.70
23231;DHT22;11784;49.818;8.632;2023-03-31T09:26:56;14.90;94.80
23231;DHT22;11784;49.818;8.632;2023-03-31T09:34:40;15.20;94.20
23231;DHT22;11784;49.818;8.632;2023-03-31T09:37:09;15.30;94.10
23231;DHT22;11784;49.818;8.632;2023-03-31T09:39:38;15.40;94.10
23231;DHT22;11784;49.818;8.632;2023-03-31T09:42:04;15.50;93.90
23231;DHT22;11784;49.818;8.632;2023-03-31T09:44:40;15.50;93.50
23231;DHT22;11784;49.818;8.632;2023-03-31T09:47:24;15.60;92.80
23231;DHT22;11784;49.818;8.632;2023-03-31T09:49:53;15.60;92.70
23231;DHT22;11784;49.818;8.632;2023-03-31T09:52:42;15.50;92.70
23231;DHT22;11784;49.818;8.632;2023-03-31T09:55:23;15.50;92.80
23231;DHT22;11784;49.818;8.632;2023-03-31T09:57:50;15.40;91.70
23231;DHT22;11784;49.818;8.632;2023-03-31T10:00:17;15.30;91.20
23231;DHT22;11784;49.818;8.632;2023-03-31T10:02:54;15.20;90.50
23231;DHT22;11784;49.818;8.632;2023-03-31T10:05:33;15.10;90.40
23231;DHT22;11784;49.818;8.632;2023-03-31T10:10:53;15.10;88.40
23231;DHT22;11784;49.818;8.632;2023-03-31T10:13:22;15.10;87.20
23231;DHT22;11784;49.818;8.632;2023-03-31T10:15:54;15.20;87.70
23231;DHT22;11784;49.818;8.632;2023-03-31T10:18:35;15.30;86.70
23231;DHT22;11784;49.818;8.632;2023-03-31T10:21:03;15.30;86.20
23231;DHT22;11784;49.818;8.632;2023-03-31T10:23:31;15.40;85.10
23231;DHT22;11784;49.818;8.632;2023-03-31T10:25:58;15.50;85.50
23231;DHT22;11784;49.818;8.632;2023-03-31T10:28:25;15.60;84.40
23231;DHT22;11784;49.818;8.632;2023-03-31T10:30:53;15.70;83.50
23231;DHT22;11784;49.818;8.632;2023-03-31T10:33:25;15.80;83.30
23231;DHT22;11784;49.818;8.632;2023-03-31T10:35:58;15.90;81.50
23231;DHT22;11784;49.818;8.632;2023-03-31T10:38:30;15.90;81.90
23231;DHT22;11784;49.818;8.632;2023-03-31T10:40:56;15.90;81.30
23231;DHT22;11784;49.818;8.632;2023-03-31T10:43:35;15.90;82.20
23231;DHT22;11784;49.818;8.632;2023-03-31T10:46:05;15.90;81.40
23231;DHT22;11784;49.818;8.632;2023-03-31T10:48:40;15.90;82.70
23231;DHT22;11784;49.818;8.632;2023-03-31T10:53:41;16.00;82.00
23231;DHT22;11784;49.818;8.632;2023-03-31T10:56:40;16.00;82.60
23231;DHT22;11784;49.818;8.632;2023-03-31T10:59:26;16.10;83.20
23231;DHT22;11784;49.818;8.632;2023-03-31T11:02:12;16.10;81.60
23231;DHT22;11784;49.818;8.632;2023-03-31T11:04:58;16.10;81.90
23231;DHT22;11784;49.818;8.632;2023-03-31T11:13:15;16.30;81.40
23231;DHT22;11784;49.818;8.632;2023-03-31T11:23:45;16.40;81.90
23231;DHT22;11784;49.818;8.632;2023-03-31T11:26:16;16.40;80.40
23231;DHT22;11784;49.818;8.632;2023-03-31T11:34:59;16.40;81.50
23231;DHT22;11784;49.818;8.632;2023-03-31T11:43:23;16.60;81.50
23231;DHT22;11784;49.818;8.632;2023-03-31T11:45:54;16.70;81.90
23231;DHT22;11784;49.818;8.632;2023-03-31T11:48:50;16.70;82.00
23231;DHT22;11784;49.818;8.632;2023-03-31T11:54:36;16.80;81.60
23231;DHT22;11784;49.818;8.632;2023-03-31T11:57:15;16.80;82.50
23231;DHT22;11784;49.818;8.632;2023-03-31T11:59:42;16.70;82.90
23231;DHT22;11784;49.818;8.632;2023-03-31T12:02:23;16.80;82.80
23231;DHT22;11784;49.818;8.632;2023-03-31T12:04:53;16.80;84.60
23231;DHT22;11784;49.818;8.632;2023-03-31T12:07:31;16.90;86.40
23231;DHT22;11784;49.818;8.632;2023-03-31T12:10:12;16.90;86.30
23231;DHT22;11784;49.818;8.632;2023-03-31T12:12:43;16.90;84.80
23231;DHT22;11784;49.818;8.632;2023-03-31T12:18:16;16.60;84.50
23231;DHT22;11784;49.818;8.632;2023-03-31T12:20:50;16.50;86.80
23231;DHT22;11784;49.818;8.632;2023-03-31T12:23:20;16.40;88.10
23231;DHT22;11784;49.818;8.632;2023-03-31T12:28:29;16.30;88.20
23231;DHT22;11784;49.818;8.632;2023-03-31T12:30:59;16.30;86.60
23231;DHT22;11784;49.818;8.632;2023-03-31T12:33:39;16.20;86.90
23231;DHT22;11784;49.818;8.632;2023-03-31T12:36:26;16.10;86.30
23231;DHT22;11784;49.818;8.632;2023-03-31T12:39:40;15.90;85.90
23231;DHT22;11784;49.818;8.632;2023-03-31T12:42:22;15.80;88.60
23231;DHT22;11784;49.818;8.632;2023-03-31T12:45:28;15.60;90.50
23231;DHT22;11784;49.818;8.632;2023-03-31T12:48:19;15.40;92.10
23231;DHT22;11784;49.818;8.632;2023-03-31T12:51:03;15.20;92.80
23231;DHT22;11784;49.818;8.632;2023-03-31T12:53:59;15.10;93.10
23231;DHT22;11784;49.818;8.632;2023-03-31T12:56:27;15.00;93.80
23231;DHT22;11784;49.818;8.632;2023-03-31T12:59:34;15.00;93.80
23231;DHT22;11784;49.818;8.632;2023-03-31T13:04:41;15.00;93.10
23231;DHT22;11784;49.818;8.632;2023-03-31T13:07:13;15.00;93.30
23231;DHT22;11784;49.818;8.632;2023-03-31T13:10:22;15.10;93.30
23231;DHT22;11784;49.818;8.632;2023-03-31T13:13:15;15.20;94.00
23231;DHT22;11784;49.818;8.632;2023-03-31T13:15:59;15.30;93.60
23231;DHT22;11784;49.818;8.632;2023-03-31T13:18:26;15.50;92.60
23231;DHT22;11784;49.818;8.632;2023-03-31T13:21:00;15.60;91.40
23231;DHT22;11784;49.818;8.632;2023-03-31T13:23:29;15.70;91.60
23231;DHT22;11784;49.818;8.632;2023-03-31T13:25:57;15.70;90.70
23231;DHT22;11784;49.818;8.632;2023-03-31T13:28:24;15.70;87.80
23231;DHT22;11784;49.818;8.632;2023-03-31T13:33:39;15.50;91.00
23231;DHT22;11784;49.818;8.632;2023-03-31T13:39:33;14.50;93.00
23231;DHT22;11784;49.818;8.632;2023-03-31T13:45:53;13.70;95.00
23231;DHT22;11784;49.818;8.632;2023-03-31T13:50:56;13.40;97.80
23231;DHT22;11784;49.818;8.632;2023-03-31T13:56:25;13.40;98.90
23231;DHT22;11784;49.818;8.632;2023-03-31T14:07:01;13.60;99.60
23231;DHT22;11784;49.818;8.632;2023-03-31T14:09:34;13.70;99.90
23231;DHT22;11784;49.818;8.632;2023-03-31T14:12:00;13.80;99.90
23231;DHT22;11784;49.818;8.632;2023-03-31T14:14:26;13.90;99.80
23231;DHT22;11784;49.818;8.632;2023-03-31T14:16:57;14.10;99.90
23231;DHT22;11784;49.818;8.632;2023-03-31T14:19:45;14.20;99.90
23231;DHT22;11784;49.818;8.632;2023-03-31T14:27:57;14.60;99.30
23231;DHT22;11784;49.818;8.632;2023-03-31T14:30:32;14.70;98.80
23231;DHT22;11784;49.818;8.632;2023-03-31T14:33:08;14.80;98.80
23231;DHT22;11784;49.818;8.632;2023-03-31T14:38:36;15.90;99.90
23231;DHT22;11784;49.818;8.632;2023-03-31T14:41:02;16.90;99.90
23231;DHT22;11784;49.818;8.632;2023-03-31T14:43:31;18.10;99.40
23231;DHT22;11784;49.818;8.632;2023-03-31T14:46:02;18.90;95.70
23231;DHT22;11784;49.818;8.632;2023-03-31T14:48:30;19.30;92.10
23231;DHT22;11784;49.818;8.632;2023-03-31T14:50:59;19.40;90.80
23231;DHT22;11784;49.818;8.632;2023-03-31T14:53:26;19.30;89.30
23231;DHT22;11784;49.818;8.632;2023-03-31T14:55:59;19.10;87.90
23231;DHT22;11784;49.818;8.632;2023-03-31T14:58:32;18.80;86.60
23231;DHT22;11784;49.818;8.632;2023-03-31T15:01:03;18.50;86.80
23231;DHT22;11784;49.818;8.632;2023-03-31T15:03:33;18.20;87.20
23231;DHT22;11784;49.818;8.632;2023-03-31T15:06:01;17.90;87.80
23231;DHT22;11784;49.818;8.632;2023-03-31T15:08:28;17.60;88.80
23231;DHT22;11784;49.818;8.632;2023-03-31T15:10:58;17.30;89.60
23231;DHT22;11784;49.818;8.632;2023-03-31T15:13:39;17.00;88.80
23231;DHT22;11784;49.818;8.632;2023-03-31T15:18:44;16.10;88.10
23231;DHT22;11784;49.818;8.632;2023-03-31T15:21:19;15.70;87.50
23231;DHT22;11784;49.818;8.632;2023-03-31T15:23:45;15.20;88.30
23231;DHT22;11784;49.818;8.632;2023-03-31T15:26:11;14.90;90.00
23231;DHT22;11784;49.818;8.632;2023-03-31T15:28:52;14.60;90.30
23231;DHT22;11784;49.818;8.632;2023-03-31T15:31:19;14.40;91.60
23231;DHT22;11784;49.818;8.632;2023-03-31T15:33:46;14.40;92.10
23231;DHT22;11784;49.818;8.632;2023-03-31T15:36:12;14.50;93.10
23231;DHT22;11784;49.818;8.632;2023-03-31T15:38:38;14.80;94.60
23231;DHT22;11784;49.818;8.632;2023-03-31T15:41:11;15.30;93.60
23231;DHT22;11784;49.818;8.632;2023-03-31T15:43:47;15.90;93.30
23231;DHT22;11784;49.818;8.632;2023-03-31T15:46:48;16.60;91.80
23231;DHT22;11784;49.818;8.632;2023-03-31T15:49:20;17.70;92.20
23231;DHT22;11784;49.818;8.632;2023-03-31T15:51:47;18.60;87.70
23231;DHT22;11784;49.818;8.632;2023-03-31T15:56:59;19.60;76.80
23231;DHT22;11784;49.818;8.632;2023-03-31T15:59:29;19.80;75.50
23231;DHT22;11784;49.818;8.632;2023-03-31T16:01:56;20.00;77.30
23231;DHT22;11784;49.818;8.632;2023-03-31T16:04:32;20.00;74.20
23231;DHT22;11784;49.818;8.632;2023-03-31T16:07:01;19.80;72.60
23231;DHT22;11784;49.818;8.632;2023-03-31T16:09:55;19.50;72.80
23231;DHT22;11784;49.818;8.632;2023-03-31T16:12:33;19.10;73.00
23231;DHT22;11784;49.818;8.632;2023-03-31T16:15:05;18.60;74.30
23231;DHT22;11784;49.818;8.632;2023-03-31T16:17:37;18.10;76.70
23231;DHT22;11784;49.818;8.632;2023-03-31T16:20:31;17.70;78.00
23231;DHT22;11784;49.818;8.632;2023-03-31T16:23:10;17.30;80.70
23231;DHT22;11784;49.818;8.632;2023-03-31T16:25:39;16.90;82.40
23231;DHT22;11784;49.818;8.632;2023-03-31T16:28:05;16.70;84.20
23231;DHT22;11784;49.818;8.632;2023-03-31T16:30:37;16.40;84.20
23231;DHT22;11784;49.818;8.632;2023-03-31T16:35:39;16.00;87.70
23231;DHT22;11784;49.818;8.632;2023-03-31T16:38:07;15.80;86.90
23231;DHT22;11784;49.818;8.632;2023-03-31T16:40:38;15.60;89.10
23231;DHT22;11784;49.818;8.632;2023-03-31T16:43:13;15.50;90.00
23231;DHT22;11784;49.818;8.632;2023-03-31T16:45:42;15.40;90.40
23231;DHT22;11784;49.818;8.632;2023-03-31T16:48:08;15.30;91.00
23231;DHT22;11784;49.818;8.632;2023-03-31T16:50:33;15.20;91.30
23231;DHT22;11784;49.818;8.632;2023-03-31T16:52:59;15.10;91.30
23231;DHT22;11784;49.818;8.632;2023-03-31T16:55:26;15.00;91.50
23231;DHT22;11784;49.818;8.632;2023-03-31T16:57:51;15.00;92.40
23231;DHT22;11784;49.818;8.632;2023-03-31T17:00:17;14.90;92.00
23231;DHT22;11784;49.818;8.632;2023-03-31T17:02:43;14.80;92.10
23231;DHT22;11784;49.818;8.632;2023-03-31T17:05:09;14.80;92.60
23231;DHT22;11784;49.818;8.632;2023-03-31T17:07:34;14.70;92.50
23231;DHT22;11784;49.818;8.632;2023-03-31T17:10:00;14.70;92.60
23231;DHT22;11784;49.818;8.632;2023-03-31T17:12:25;14.60;92.60
23231;DHT22;11784;49.818;8.632;2023-03-31T17:14:51;14.60;93.00
23231;DHT22;11784;49.818;8.632;2023-03-31T17:17:16;14.50;92.90
23231;DHT22;11784;49.818;8.632;2023-03-31T17:19:44;14.50;92.80
23231;DHT22;11784;49.818;8.632;2023-03-31T17:22:10;14.40;92.70
23231;DHT22;11784;49.818;8.632;2023-03-31T17:24:36;14.40;92.70
23231;DHT22;11784;49.818;8.632;2023-03-31T17:27:01;14.40;93.10
23231;DHT22;11784;49.818;8.632;2023-03-31T17:29:27;14.40;92.40
23231;DHT22;11784;49.818;8.632;2023-03-31T17:31:52;14.40;93.00
23231;DHT22;11784;49.818;8.632;2023-03-31T17:34:18;14.30;92.90
23231;DHT22;11784;49.818;8.632;2023-03-31T17:36:43;14.30;93.10
23231;DHT22;11784;49.818;8.632;2023-03-31T17:39:09;14.30;93.20
23231;DHT22;11784;49.818;8.632;2023-03-31T17:41:35;14.30;92.90
23231;DHT22;11784;49.818;8.632;2023-03-31T17:44:01;14.30;93.30
23231;DHT22;11784;49.818;8.632;2023-03-31T17:46:29;14.30;93.10
23231;DHT22;11784;49.818;8.632;2023-03-31T17:48:55;14.30;93.00
23231;DHT22;11784;49.818;8.632;2023-03-31T17:51:22;14.30;93.30
23231;DHT22;11784;49.818;8.632;2023-03-31T17:53:48;14.30;92.60
23231;DHT22;11784;49.818;8.632;2023-03-31T17:56:15;14.30;92.40
23231;DHT22;11784;49.818;8.632;2023-03-31T17:58:41;14.30;92.90
23231;DHT22;11784;49.818;8.632;2023-03-31T18:01:12;14.30;93.30
23231;DHT22;11784;49.818;8.632;2023-03-31T18:03:37;14.30;92.60
23231;DHT22;11784;49.818;8.632;2023-03-31T18:06:08;14.30;92.30
23231;DHT22;11784;49.818;8.632;2023-03-31T18:08:35;14.30;92.00
23231;DHT22;11784;49.818;8.632;2023-03-31T18:11:02;14.20;91.50